sensor_id;sensor_type;location;lat;lon;timestamp;pressure;altitude;pressure_sealevel;temperature;humidity
49973;BME280;65693;49.798;10.968;2022-12-18T00:02:00;99283.59;;;3.69;66.63
49973;BME280;65693;49.798;10.968;2022-12-18T00:04:27;99288.69;;;3.71;66.69
49973;BME280;65693;49.798;10.968;2022-12-18T00:06:53;99289.69;;;3.70;66.68
49973;BME280;65693;49.798;10.968;2022-12-18T00:09:20;99285.44;;;3.69;66.69
49973;BME280;65693;49.798;10.968;2022-12-18T00:11:47;99281.81;;;3.70;66.53
49973;BME280;65693;49.798;10.968;2022-12-18T00:14:13;99279.69;;;3.65;66.54
49973;BME280;65693;49.798;10.968;2022-12-18T00:16:45;99271.03;;;3.65;66.67
49973;BME280;65693;49.798;10.968;2022-12-18T00:19:12;99274.28;;;3.67;66.54
49973;BME280;65693;49.798;10.968;2022-12-18T00:21:39;99277.91;;;3.66;66.52
49973;BME280;65693;49.798;10.968;2022-12-18T00:24:06;99277.25;;;3.64;66.54
49973;BME280;65693;49.798;10.968;2022-12-18T00:26:35;99285.78;;;3.66;66.49
49973;BME280;65693;49.798;10.968;2022-12-18T00:29:04;99275.28;;;3.66;66.48
49973;BME280;65693;49.798;10.968;2022-12-18T00:31:31;99280.88;;;3.63;66.41
49973;BME280;65693;49.798;10.968;2022-12-18T00:33:59;99284.16;;;3.65;66.39
49973;BME280;65693;49.798;10.968;2022-12-18T00:36:27;99275.63;;;3.63;66.55
49973;BME280;65693;49.798;10.968;2022-12-18T00:38:55;99281.69;;;3.63;66.48
49973;BME280;65693;49.798;10.968;2022-12-18T00:41:22;99286.94;;;3.63;66.38
49973;BME280;65693;49.798;10.968;2022-12-18T00:44:08;99278.25;;;3.63;66.33
49973;BME280;65693;49.798;10.968;2022-12-18T00:46:35;99272.00;;;3.64;66.24
49973;BME280;65693;49.798;10.968;2022-12-18T00:49:03;99265.31;;;3.61;66.24
49973;BME280;65693;49.798;10.968;2022-12-18T00:51:30;99272.38;;;3.61;66.28
49973;BME280;65693;49.798;10.968;2022-12-18T00:53:56;99272.53;;;3.59;66.34
49973;BME280;65693;49.798;10.968;2022-12-18T00:56:23;99282.84;;;3.61;66.20
49973;BME280;65693;49.798;10.968;2022-12-18T00:58:50;99272.72;;;3.58;66.23
49973;BME280;65693;49.798;10.968;2022-12-18T01:01:17;99269.09;;;3.59;66.29
49973;BME280;65693;49.798;10.968;2022-12-18T01:03:44;99273.69;;;3.57;66.27
49973;BME280;65693;49.798;10.968;2022-12-18T01:06:14;99274.34;;;3.59;66.26
49973;BME280;65693;49.798;10.968;2022-12-18T01:08:41;99274.00;;;3.62;66.19
49973;BME280;65693;49.798;10.968;2022-12-18T01:11:09;99274.34;;;3.59;66.16
49973;BME280;65693;49.798;10.968;2022-12-18T01:13:35;99275.50;;;3.56;66.27
49973;BME280;65693;49.798;10.968;2022-12-18T01:16:03;99275.16;;;3.59;66.20
49973;BME280;65693;49.798;10.968;2022-12-18T01:18:29;99279.56;;;3.59;66.07
49973;BME280;65693;49.798;10.968;2022-12-18T01:20:56;99281.22;;;3.60;66.17
49973;BME280;65693;49.798;10.968;2022-12-18T01:23:23;99284.81;;;3.59;66.07
49973;BME280;65693;49.798;10.968;2022-12-18T01:25:50;99281.56;;;3.57;66.19
49973;BME280;65693;49.798;10.968;2022-12-18T01:28:16;99288.78;;;3.55;66.17
49973;BME280;65693;49.798;10.968;2022-12-18T01:30:43;99284.19;;;3.57;66.09
49973;BME280;65693;49.798;10.968;2022-12-18T01:33:09;99288.97;;;3.53;66.05
49973;BME280;65693;49.798;10.968;2022-12-18T01:35:40;99289.81;;;3.54;66.15
49973;BME280;65693;49.798;10.968;2022-12-18T01:38:06;99290.44;;;3.56;66.01
49973;BME280;65693;49.798;10.968;2022-12-18T01:40:35;99300.13;;;3.55;66.02
49973;BME280;65693;49.798;10.968;2022-12-18T01:43:02;99298.47;;;3.54;66.02
49973;BME280;65693;49.798;10.968;2022-12-18T01:45:30;99287.31;;;3.52;65.91
49973;BME280;65693;49.798;10.968;2022-12-18T01:47:59;99291.75;;;3.51;65.96
49973;BME280;65693;49.798;10.968;2022-12-18T01:50:29;99294.38;;;3.51;65.90
49973;BME280;65693;49.798;10.968;2022-12-18T01:53:00;99292.75;;;3.50;66.05
49973;BME280;65693;49.798;10.968;2022-12-18T01:55:30;99292.25;;;3.55;65.89
49973;BME280;65693;49.798;10.968;2022-12-18T01:57:59;99291.94;;;3.50;65.95
49973;BME280;65693;49.798;10.968;2022-12-18T02:00:26;99298.00;;;3.50;65.84
49973;BME280;65693;49.798;10.968;2022-12-18T02:02:54;99308.47;;;3.50;65.81
49973;BME280;65693;49.798;10.968;2022-12-18T02:05:29;99302.06;;;3.53;65.80
49973;BME280;65693;49.798;10.968;2022-12-18T02:08:06;99303.25;;;3.50;65.83
49973;BME280;65693;49.798;10.968;2022-12-18T02:10:40;99304.88;;;3.51;65.70
49973;BME280;65693;49.798;10.968;2022-12-18T02:13:13;99305.22;;;3.48;65.80
49973;BME280;65693;49.798;10.968;2022-12-18T02:15:51;99310.47;;;3.48;65.78
49973;BME280;65693;49.798;10.968;2022-12-18T02:18:23;99299.50;;;3.45;65.70
49973;BME280;65693;49.798;10.968;2022-12-18T02:20:54;99295.72;;;3.47;65.75
49973;BME280;65693;49.798;10.968;2022-12-18T02:23:35;99297.72;;;3.45;65.79
49973;BME280;65693;49.798;10.968;2022-12-18T02:26:15;99296.72;;;3.46;65.64
49973;BME280;65693;49.798;10.968;2022-12-18T02:28:46;99295.41;;;3.42;65.63
49973;BME280;65693;49.798;10.968;2022-12-18T02:31:19;99292.47;;;3.45;65.68
49973;BME280;65693;49.798;10.968;2022-12-18T02:33:49;99297.88;;;3.44;65.63
49973;BME280;65693;49.798;10.968;2022-12-18T02:36:18;99295.59;;;3.41;65.64
49973;BME280;65693;49.798;10.968;2022-12-18T02:38:47;99298.88;;;3.43;65.54
49973;BME280;65693;49.798;10.968;2022-12-18T02:41:16;99303.94;;;3.44;65.73
49973;BME280;65693;49.798;10.968;2022-12-18T02:43:47;99308.22;;;3.45;65.66
49973;BME280;65693;49.798;10.968;2022-12-18T02:46:29;99312.63;;;3.45;65.50
49973;BME280;65693;49.798;10.968;2022-12-18T02:49:04;99312.16;;;3.41;65.59
49973;BME280;65693;49.798;10.968;2022-12-18T02:51:37;99312.78;;;3.43;65.52
49973;BME280;65693;49.798;10.968;2022-12-18T02:54:10;99310.84;;;3.45;65.54
49973;BME280;65693;49.798;10.968;2022-12-18T02:56:46;99305.91;;;3.42;65.45
49973;BME280;65693;49.798;10.968;2022-12-18T02:59:17;99298.03;;;3.42;65.52
49973;BME280;65693;49.798;10.968;2022-12-18T03:01:50;99291.19;;;3.41;65.42
49973;BME280;65693;49.798;10.968;2022-12-18T03:04:20;99295.94;;;3.38;65.64
49973;BME280;65693;49.798;10.968;2022-12-18T03:06:51;99292.97;;;3.41;65.52
49973;BME280;65693;49.798;10.968;2022-12-18T03:09:21;99301.00;;;3.39;65.47
49973;BME280;65693;49.798;10.968;2022-12-18T03:11:55;99304.78;;;3.37;65.36
49973;BME280;65693;49.798;10.968;2022-12-18T03:14:59;99303.97;;;3.36;65.46
49973;BME280;65693;49.798;10.968;2022-12-18T03:17:28;99309.22;;;3.36;65.55
49973;BME280;65693;49.798;10.968;2022-12-18T03:19:58;99313.50;;;3.37;65.23
49973;BME280;65693;49.798;10.968;2022-12-18T03:22:27;99314.31;;;3.38;65.30
49973;BME280;65693;49.798;10.968;2022-12-18T03:24:56;99312.47;;;3.38;65.31
49973;BME280;65693;49.798;10.968;2022-12-18T03:27:27;99310.38;;;3.33;65.32
49973;BME280;65693;49.798;10.968;2022-12-18T03:30:00;99312.53;;;3.30;65.28
49973;BME280;65693;49.798;10.968;2022-12-18T03:32:35;99319.41;;;3.31;65.29
49973;BME280;65693;49.798;10.968;2022-12-18T03:35:05;99327.59;;;3.36;65.22
49973;BME280;65693;49.798;10.968;2022-12-18T03:37:33;99319.41;;;3.31;65.21
49973;BME280;65693;49.798;10.968;2022-12-18T03:40:00;99323.69;;;3.32;65.15
49973;BME280;65693;49.798;10.968;2022-12-18T03:42:29;99320.38;;;3.30;65.07
49973;BME280;65693;49.798;10.968;2022-12-18T03:45:02;99327.09;;;3.32;65.12
49973;BME280;65693;49.798;10.968;2022-12-18T03:47:38;99324.66;;;3.31;65.11
49973;BME280;65693;49.798;10.968;2022-12-18T03:50:12;99329.56;;;3.34;65.19
49973;BME280;65693;49.798;10.968;2022-12-18T03:52:42;99332.34;;;3.32;65.20
49973;BME280;65693;49.798;10.968;2022-12-18T03:55:12;99334.78;;;3.34;65.11
49973;BME280;65693;49.798;10.968;2022-12-18T03:57:41;99330.25;;;3.28;65.09
49973;BME280;65693;49.798;10.968;2022-12-18T04:00:11;99322.38;;;3.28;65.34
49973;BME280;65693;49.798;10.968;2022-12-18T04:02:42;99327.44;;;3.29;65.12
49973;BME280;65693;49.798;10.968;2022-12-18T04:05:11;99335.50;;;3.28;65.22
49973;BME280;65693;49.798;10.968;2022-12-18T04:07:39;99336.31;;;3.28;65.08
49973;BME280;65693;49.798;10.968;2022-12-18T04:10:07;99345.97;;;3.28;64.93
49973;BME280;65693;49.798;10.968;2022-12-18T04:12:37;99354.47;;;3.30;64.95
49973;BME280;65693;49.798;10.968;2022-12-18T04:15:06;99353.84;;;3.28;64.87
49973;BME280;65693;49.798;10.968;2022-12-18T04:17:33;99347.13;;;3.25;64.81
49973;BME280;65693;49.798;10.968;2022-12-18T04:19:59;99350.75;;;3.24;64.90
49973;BME280;65693;49.798;10.968;2022-12-18T04:22:26;99347.47;;;3.22;64.89
49973;BME280;65693;49.798;10.968;2022-12-18T04:24:52;99350.25;;;3.21;64.66
49973;BME280;65693;49.798;10.968;2022-12-18T04:27:19;99355.97;;;3.24;64.75
49973;BME280;65693;49.798;10.968;2022-12-18T04:29:45;99354.50;;;3.22;64.83
49973;BME280;65693;49.798;10.968;2022-12-18T04:32:13;99355.34;;;3.22;64.83
49973;BME280;65693;49.798;10.968;2022-12-18T04:34:39;99349.75;;;3.25;64.88
49973;BME280;65693;49.798;10.968;2022-12-18T04:37:06;99349.75;;;3.25;64.81
49973;BME280;65693;49.798;10.968;2022-12-18T04:39:33;99343.03;;;3.23;64.68
49973;BME280;65693;49.798;10.968;2022-12-18T04:42:00;99338.16;;;3.20;64.61
49973;BME280;65693;49.798;10.968;2022-12-18T04:44:27;99353.53;;;3.23;64.74
49973;BME280;65693;49.798;10.968;2022-12-18T04:46:53;99360.09;;;3.18;64.75
49973;BME280;65693;49.798;10.968;2022-12-18T04:49:22;99349.63;;;3.18;64.68
49973;BME280;65693;49.798;10.968;2022-12-18T04:51:48;99337.31;;;3.19;64.75
49973;BME280;65693;49.798;10.968;2022-12-18T04:54:15;99330.91;;;3.22;64.59
49973;BME280;65693;49.798;10.968;2022-12-18T04:56:41;99344.19;;;3.20;64.54
49973;BME280;65693;49.798;10.968;2022-12-18T04:59:08;99342.91;;;3.16;64.69
49973;BME280;65693;49.798;10.968;2022-12-18T05:01:34;99352.88;;;3.21;64.58
49973;BME280;65693;49.798;10.968;2022-12-18T05:04:01;99353.22;;;3.17;64.61
49973;BME280;65693;49.798;10.968;2022-12-18T05:06:29;99348.94;;;3.16;64.58
49973;BME280;65693;49.798;10.968;2022-12-18T05:08:56;99350.94;;;3.14;64.51
49973;BME280;65693;49.798;10.968;2022-12-18T05:11:22;99350.94;;;3.14;64.49
49973;BME280;65693;49.798;10.968;2022-12-18T05:13:49;99352.59;;;3.15;64.44
49973;BME280;65693;49.798;10.968;2022-12-18T05:16:15;99347.66;;;3.12;64.51
49973;BME280;65693;49.798;10.968;2022-12-18T05:18:42;99364.84;;;3.15;64.49
49973;BME280;65693;49.798;10.968;2022-12-18T05:21:08;99361.44;;;3.14;64.40
49973;BME280;65693;49.798;10.968;2022-12-18T05:23:36;99363.69;;;3.17;64.42
49973;BME280;65693;49.798;10.968;2022-12-18T05:26:05;99363.38;;;3.12;64.43
49973;BME280;65693;49.798;10.968;2022-12-18T05:28:34;99366.00;;;3.12;64.46
49973;BME280;65693;49.798;10.968;2022-12-18T05:31:02;99358.13;;;3.12;64.40
49973;BME280;65693;49.798;10.968;2022-12-18T05:33:31;99363.72;;;3.09;64.30
49973;BME280;65693;49.798;10.968;2022-12-18T05:36:02;99356.69;;;3.10;64.36
49973;BME280;65693;49.798;10.968;2022-12-18T05:38:30;99360.75;;;3.12;64.34
49973;BME280;65693;49.798;10.968;2022-12-18T05:40:58;99356.03;;;3.08;64.02
49973;BME280;65693;49.798;10.968;2022-12-18T05:43:26;99361.28;;;3.08;64.18
49973;BME280;65693;49.798;10.968;2022-12-18T05:45:53;99363.09;;;3.07;64.25
49973;BME280;65693;49.798;10.968;2022-12-18T05:48:21;99358.66;;;3.08;64.23
49973;BME280;65693;49.798;10.968;2022-12-18T05:50:49;99361.09;;;3.09;64.09
49973;BME280;65693;49.798;10.968;2022-12-18T05:53:17;99377.81;;;3.08;64.08
49973;BME280;65693;49.798;10.968;2022-12-18T05:55:44;99385.03;;;3.06;64.13
49973;BME280;65693;49.798;10.968;2022-12-18T05:58:13;99387.50;;;3.08;64.09
49973;BME280;65693;49.798;10.968;2022-12-18T06:00:42;99373.25;;;3.02;63.95
49973;BME280;65693;49.798;10.968;2022-12-18T06:03:09;99376.53;;;3.04;64.14
49973;BME280;65693;49.798;10.968;2022-12-18T06:05:37;99371.28;;;3.04;64.09
49973;BME280;65693;49.798;10.968;2022-12-18T06:08:04;99379.47;;;3.09;64.02
49973;BME280;65693;49.798;10.968;2022-12-18T06:10:31;99383.06;;;3.08;64.02
49973;BME280;65693;49.798;10.968;2022-12-18T06:12:58;99385.38;;;3.03;63.99
49973;BME280;65693;49.798;10.968;2022-12-18T06:15:26;99397.34;;;3.06;64.06
49973;BME280;65693;49.798;10.968;2022-12-18T06:17:52;99401.91;;;3.04;63.97
49973;BME280;65693;49.798;10.968;2022-12-18T06:20:19;99395.03;;;3.03;64.02
49973;BME280;65693;49.798;10.968;2022-12-18T06:22:45;99400.09;;;3.04;63.98
49973;BME280;65693;49.798;10.968;2022-12-18T06:25:12;99391.94;;;2.99;64.00
49973;BME280;65693;49.798;10.968;2022-12-18T06:27:38;99389.34;;;2.99;63.92
49973;BME280;65693;49.798;10.968;2022-12-18T06:30:06;99392.94;;;2.98;63.91
49973;BME280;65693;49.798;10.968;2022-12-18T06:32:34;99392.25;;;3.04;63.95
49973;BME280;65693;49.798;10.968;2022-12-18T06:35:01;99384.91;;;2.99;63.94
49973;BME280;65693;49.798;10.968;2022-12-18T06:37:27;99373.78;;;2.97;63.94
49973;BME280;65693;49.798;10.968;2022-12-18T06:39:53;99382.44;;;2.98;63.83
49973;BME280;65693;49.798;10.968;2022-12-18T06:42:21;99391.94;;;2.99;63.92
49973;BME280;65693;49.798;10.968;2022-12-18T06:44:48;99386.03;;;2.97;63.92
49973;BME280;65693;49.798;10.968;2022-12-18T06:47:14;99394.56;;;2.99;63.85
49973;BME280;65693;49.798;10.968;2022-12-18T06:49:42;99392.13;;;2.97;63.75
49973;BME280;65693;49.798;10.968;2022-12-18T06:52:09;99388.66;;;2.97;63.73
49973;BME280;65693;49.798;10.968;2022-12-18T06:54:35;99392.44;;;2.94;63.65
49973;BME280;65693;49.798;10.968;2022-12-18T06:57:02;99405.22;;;2.97;63.73
49973;BME280;65693;49.798;10.968;2022-12-18T06:59:28;99395.88;;;2.95;63.80
49973;BME280;65693;49.798;10.968;2022-12-18T07:01:55;99403.59;;;2.96;63.72
49973;BME280;65693;49.798;10.968;2022-12-18T07:04:21;99394.25;;;2.94;63.60
49973;BME280;65693;49.798;10.968;2022-12-18T07:06:50;99409.63;;;2.97;63.64
49973;BME280;65693;49.798;10.968;2022-12-18T07:09:16;99405.06;;;2.99;63.65
49973;BME280;65693;49.798;10.968;2022-12-18T07:11:42;99397.50;;;2.96;63.61
49973;BME280;65693;49.798;10.968;2022-12-18T07:14:09;99400.28;;;2.94;63.64
49973;BME280;65693;49.798;10.968;2022-12-18T07:16:35;99406.19;;;2.96;63.74
49973;BME280;65693;49.798;10.968;2022-12-18T07:19:02;99414.53;;;3.00;63.82
49973;BME280;65693;49.798;10.968;2022-12-18T07:21:28;99411.09;;;2.99;63.92
49973;BME280;65693;49.798;10.968;2022-12-18T07:23:56;99401.78;;;2.97;63.92
49973;BME280;65693;49.798;10.968;2022-12-18T07:26:23;99413.41;;;2.94;64.01
49973;BME280;65693;49.798;10.968;2022-12-18T07:28:50;99407.53;;;2.92;64.10
49973;BME280;65693;49.798;10.968;2022-12-18T07:31:21;99406.53;;;2.93;64.10
49973;BME280;65693;49.798;10.968;2022-12-18T07:33:47;99415.22;;;2.94;64.11
49973;BME280;65693;49.798;10.968;2022-12-18T07:36:14;99416.19;;;2.93;64.01
49973;BME280;65693;49.798;10.968;2022-12-18T07:38:41;99418.63;;;2.94;63.99
49973;BME280;65693;49.798;10.968;2022-12-18T07:41:11;99432.41;;;2.96;64.00
49973;BME280;65693;49.798;10.968;2022-12-18T07:43:37;99431.91;;;2.93;63.88
49973;BME280;65693;49.798;10.968;2022-12-18T07:46:05;99437.16;;;2.93;64.00
49973;BME280;65693;49.798;10.968;2022-12-18T07:48:32;99449.28;;;2.94;63.89
49973;BME280;65693;49.798;10.968;2022-12-18T07:50:59;99446.66;;;2.94;63.83
49973;BME280;65693;49.798;10.968;2022-12-18T07:53:26;99443.22;;;2.93;63.88
49973;BME280;65693;49.798;10.968;2022-12-18T07:55:55;99450.09;;;2.94;63.81
49973;BME280;65693;49.798;10.968;2022-12-18T07:58:23;99444.03;;;2.94;63.79
49973;BME280;65693;49.798;10.968;2022-12-18T08:00:49;99449.28;;;2.94;63.89
49973;BME280;65693;49.798;10.968;2022-12-18T08:03:17;99452.53;;;2.96;63.96
49973;BME280;65693;49.798;10.968;2022-12-18T08:05:43;99461.06;;;2.98;64.01
49973;BME280;65693;49.798;10.968;2022-12-18T08:08:10;99456.63;;;2.98;64.01
49973;BME280;65693;49.798;10.968;2022-12-18T08:10:37;99455.03;;;2.97;64.05
49973;BME280;65693;49.798;10.968;2022-12-18T08:13:04;99457.78;;;2.96;64.11
49973;BME280;65693;49.798;10.968;2022-12-18T08:15:31;99454.34;;;2.95;64.25
49973;BME280;65693;49.798;10.968;2022-12-18T08:17:58;99454.53;;;2.94;64.14
49973;BME280;65693;49.798;10.968;2022-12-18T08:20:24;99459.44;;;2.97;64.08
49973;BME280;65693;49.798;10.968;2022-12-18T08:22:51;99457.47;;;2.99;64.08
49973;BME280;65693;49.798;10.968;2022-12-18T08:25:17;99462.22;;;2.95;64.26
49973;BME280;65693;49.798;10.968;2022-12-18T08:27:44;99468.44;;;3.03;63.96
49973;BME280;65693;49.798;10.968;2022-12-18T08:30:11;99470.56;;;2.99;64.24
49973;BME280;65693;49.798;10.968;2022-12-18T08:32:39;99471.38;;;2.99;64.10
49973;BME280;65693;49.798;10.968;2022-12-18T08:35:06;99466.94;;;3.00;64.12
49973;BME280;65693;49.798;10.968;2022-12-18T08:37:33;99471.22;;;3.01;64.23
49973;BME280;65693;49.798;10.968;2022-12-18T08:40:00;99464.31;;;3.00;64.10
49973;BME280;65693;49.798;10.968;2022-12-18T08:42:26;99464.03;;;3.03;64.08
49973;BME280;65693;49.798;10.968;2022-12-18T08:45:10;99459.75;;;3.02;64.14
49973;BME280;65693;49.798;10.968;2022-12-18T08:47:38;99464.19;;;3.01;64.11
49973;BME280;65693;49.798;10.968;2022-12-18T08:50:05;99463.19;;;3.03;64.13
49973;BME280;65693;49.798;10.968;2022-12-18T08:52:32;99451.09;;;3.01;64.05
49973;BME280;65693;49.798;10.968;2022-12-18T08:54:58;99444.03;;;3.02;64.07
49973;BME280;65693;49.798;10.968;2022-12-18T08:57:25;99457.13;;;3.02;64.22
49973;BME280;65693;49.798;10.968;2022-12-18T08:59:51;99452.06;;;3.00;64.12
49973;BME280;65693;49.798;10.968;2022-12-18T09:02:18;99445.84;;;3.01;64.19
49973;BME280;65693;49.798;10.968;2022-12-18T09:04:47;99451.56;;;3.05;64.22
49973;BME280;65693;49.798;10.968;2022-12-18T09:07:14;99453.53;;;3.03;64.11
49973;BME280;65693;49.798;10.968;2022-12-18T09:09:40;99453.72;;;3.01;64.09
49973;BME280;65693;49.798;10.968;2022-12-18T09:12:07;99448.59;;;3.00;64.18
49973;BME280;65693;49.798;10.968;2022-12-18T09:14:34;99454.69;;;3.00;64.23
49973;BME280;65693;49.798;10.968;2022-12-18T09:17:00;99452.88;;;3.01;64.29
49973;BME280;65693;49.798;10.968;2022-12-18T09:19:27;99453.53;;;3.03;64.35
49973;BME280;65693;49.798;10.968;2022-12-18T09:21:55;99453.53;;;3.03;64.31
49973;BME280;65693;49.798;10.968;2022-12-18T09:24:21;99454.16;;;3.05;64.38
49973;BME280;65693;49.798;10.968;2022-12-18T09:26:47;99437.81;;;3.03;64.49
49973;BME280;65693;49.798;10.968;2022-12-18T09:29:14;99444.34;;;3.07;64.38
49973;BME280;65693;49.798;10.968;2022-12-18T09:31:41;99430.59;;;3.05;64.30
49973;BME280;65693;49.798;10.968;2022-12-18T09:34:07;99428.94;;;3.04;64.27
49973;BME280;65693;49.798;10.968;2022-12-18T09:36:34;99416.84;;;3.03;64.61
49973;BME280;65693;49.798;10.968;2022-12-18T09:39:02;99411.09;;;3.08;64.43
49973;BME280;65693;49.798;10.968;2022-12-18T09:41:45;99413.72;;;3.08;64.40
49973;BME280;65693;49.798;10.968;2022-12-18T09:44:23;99416.16;;;3.09;64.31
49973;BME280;65693;49.798;10.968;2022-12-18T09:46:55;99413.72;;;3.08;64.33
49973;BME280;65693;49.798;10.968;2022-12-18T09:49:27;99410.09;;;3.09;64.31
49973;BME280;65693;49.798;10.968;2022-12-18T09:51:58;99423.03;;;3.10;64.32
49973;BME280;65693;49.798;10.968;2022-12-18T09:54:32;99423.84;;;3.11;64.35
49973;BME280;65693;49.798;10.968;2022-12-18T09:57:00;99430.72;;;3.12;64.40
49973;BME280;65693;49.798;10.968;2022-12-18T09:59:35;99424.50;;;3.13;64.45
49973;BME280;65693;49.798;10.968;2022-12-18T10:02:13;99425.31;;;3.13;64.54
49973;BME280;65693;49.798;10.968;2022-12-18T10:04:41;99423.53;;;3.14;64.46
49973;BME280;65693;49.798;10.968;2022-12-18T10:07:13;99420.75;;;3.15;64.58
49973;BME280;65693;49.798;10.968;2022-12-18T10:09:50;99420.75;;;3.15;64.53
49973;BME280;65693;49.798;10.968;2022-12-18T10:12:27;99417.13;;;3.16;64.50
49973;BME280;65693;49.798;10.968;2022-12-18T10:15:05;99409.09;;;3.18;64.61
49973;BME280;65693;49.798;10.968;2022-12-18T10:17:42;99420.06;;;3.22;64.80
49973;BME280;65693;49.798;10.968;2022-12-18T10:20:14;99411.38;;;3.21;64.64
49973;BME280;65693;49.798;10.968;2022-12-18T10:22:53;99408.94;;;3.20;64.90
49973;BME280;65693;49.798;10.968;2022-12-18T10:25:28;99406.31;;;3.20;64.97
49973;BME280;65693;49.798;10.968;2022-12-18T10:28:00;99407.94;;;3.21;65.07
49973;BME280;65693;49.798;10.968;2022-12-18T10:30:33;99402.53;;;3.22;65.24
49973;BME280;65693;49.798;10.968;2022-12-18T10:33:00;99405.00;;;3.24;65.25
49973;BME280;65693;49.798;10.968;2022-12-18T10:35:27;99403.97;;;3.25;65.13
49973;BME280;65693;49.798;10.968;2022-12-18T10:38:02;99409.88;;;3.27;65.20
49973;BME280;65693;49.798;10.968;2022-12-18T10:40:31;99412.84;;;3.24;65.36
49973;BME280;65693;49.798;10.968;2022-12-18T10:43:04;99425.13;;;3.23;65.33
49973;BME280;65693;49.798;10.968;2022-12-18T10:45:31;99433.84;;;3.24;65.66
49973;BME280;65693;49.798;10.968;2022-12-18T10:47:57;99434.97;;;3.21;65.45
49973;BME280;65693;49.798;10.968;2022-12-18T10:50:27;99432.81;;;3.25;65.49
49973;BME280;65693;49.798;10.968;2022-12-18T10:52:55;99426.78;;;3.24;65.50
49973;BME280;65693;49.798;10.968;2022-12-18T10:55:24;99427.56;;;3.25;65.57
49973;BME280;65693;49.798;10.968;2022-12-18T10:58:13;99427.56;;;3.25;65.56
49973;BME280;65693;49.798;10.968;2022-12-18T11:00:42;99431.38;;;3.22;65.70
49973;BME280;65693;49.798;10.968;2022-12-18T11:03:30;99431.84;;;3.26;65.78
49973;BME280;65693;49.798;10.968;2022-12-18T11:06:05;99422.34;;;3.25;65.69
49973;BME280;65693;49.798;10.968;2022-12-18T11:08:32;99418.56;;;3.27;65.95
49973;BME280;65693;49.798;10.968;2022-12-18T11:10:59;99410.53;;;3.29;65.89
49973;BME280;65693;49.798;10.968;2022-12-18T11:13:28;99403.97;;;3.25;65.89
49973;BME280;65693;49.798;10.968;2022-12-18T11:15:55;99403.84;;;3.26;66.09
49973;BME280;65693;49.798;10.968;2022-12-18T11:18:25;99411.19;;;3.31;66.02
49973;BME280;65693;49.798;10.968;2022-12-18T11:20:54;99414.78;;;3.30;66.11
49973;BME280;65693;49.798;10.968;2022-12-18T11:23:23;99411.34;;;3.29;66.08
49973;BME280;65693;49.798;10.968;2022-12-18T11:25:55;99412.50;;;3.27;66.19
49973;BME280;65693;49.798;10.968;2022-12-18T11:28:34;99409.72;;;3.28;66.13
49973;BME280;65693;49.798;10.968;2022-12-18T11:31:15;99402.97;;;3.34;66.18
49973;BME280;65693;49.798;10.968;2022-12-18T11:33:45;99405.28;;;3.37;66.06
49973;BME280;65693;49.798;10.968;2022-12-18T11:36:14;99393.78;;;3.38;66.13
49973;BME280;65693;49.798;10.968;2022-12-18T11:38:42;99403.28;;;3.39;66.05
49973;BME280;65693;49.798;10.968;2022-12-18T11:41:16;99406.56;;;3.41;66.18
49973;BME280;65693;49.798;10.968;2022-12-18T11:43:50;99399.34;;;3.43;66.07
49973;BME280;65693;49.798;10.968;2022-12-18T11:46:24;99390.97;;;3.40;66.10
49973;BME280;65693;49.798;10.968;2022-12-18T11:48:58;99389.84;;;3.42;66.17
49973;BME280;65693;49.798;10.968;2022-12-18T11:51:32;99381.66;;;3.45;66.18
49973;BME280;65693;49.798;10.968;2022-12-18T11:54:00;99385.72;;;3.48;66.39
49973;BME280;65693;49.798;10.968;2022-12-18T11:56:32;99381.66;;;3.45;66.23
49973;BME280;65693;49.798;10.968;2022-12-18T11:59:08;99380.63;;;3.46;66.28
49973;BME280;65693;49.798;10.968;2022-12-18T12:01:48;99387.16;;;3.50;66.29
49973;BME280;65693;49.798;10.968;2022-12-18T12:04:31;99386.53;;;3.48;66.34
49973;BME280;65693;49.798;10.968;2022-12-18T12:07:07;99380.31;;;3.49;66.42
49973;BME280;65693;49.798;10.968;2022-12-18T12:09:45;99383.56;;;3.51;66.44
49973;BME280;65693;49.798;10.968;2022-12-18T12:12:27;99371.63;;;3.49;66.45
49973;BME280;65693;49.798;10.968;2022-12-18T12:15:19;99366.19;;;3.50;66.42
49973;BME280;65693;49.798;10.968;2022-12-18T12:17:54;99354.53;;;3.53;66.82
49973;BME280;65693;49.798;10.968;2022-12-18T12:20:29;99351.28;;;3.51;66.60
49973;BME280;65693;49.798;10.968;2022-12-18T12:23:06;99344.22;;;3.51;66.71
49973;BME280;65693;49.798;10.968;2022-12-18T12:25:43;99343.25;;;3.52;66.71
49973;BME280;65693;49.798;10.968;2022-12-18T12:28:32;99342.09;;;3.55;66.59
49973;BME280;65693;49.798;10.968;2022-12-18T12:31:08;99346.50;;;3.55;66.78
49973;BME280;65693;49.798;10.968;2022-12-18T12:33:45;99346.31;;;3.56;66.80
49973;BME280;65693;49.798;10.968;2022-12-18T12:36:22;99349.78;;;3.57;66.74
49973;BME280;65693;49.798;10.968;2022-12-18T12:38:55;99352.41;;;3.57;66.86
49973;BME280;65693;49.798;10.968;2022-12-18T12:41:27;99359.44;;;3.56;66.90
49973;BME280;65693;49.798;10.968;2022-12-18T12:44:15;99357.28;;;3.60;66.97
49973;BME280;65693;49.798;10.968;2022-12-18T12:46:44;99357.97;;;3.62;67.07
49973;BME280;65693;49.798;10.968;2022-12-18T12:49:14;99369.44;;;3.61;66.95
49973;BME280;65693;49.798;10.968;2022-12-18T12:51:43;99365.81;;;3.62;67.06
49973;BME280;65693;49.798;10.968;2022-12-18T12:54:14;99356.78;;;3.64;67.13
49973;BME280;65693;49.798;10.968;2022-12-18T12:56:47;99341.72;;;3.58;67.12
49973;BME280;65693;49.798;10.968;2022-12-18T12:59:22;99349.72;;;3.65;67.12
49973;BME280;65693;49.798;10.968;2022-12-18T13:01:58;99351.69;;;3.63;66.99
49973;BME280;65693;49.798;10.968;2022-12-18T13:04:30;99350.72;;;3.64;67.09
49973;BME280;65693;49.798;10.968;2022-12-18T13:07:03;99349.91;;;3.63;67.08
49973;BME280;65693;49.798;10.968;2022-12-18T13:09:33;99345.13;;;3.67;67.32
49973;BME280;65693;49.798;10.968;2022-12-18T13:12:02;99348.75;;;3.66;67.16
49973;BME280;65693;49.798;10.968;2022-12-18T13:14:47;99343.16;;;3.69;67.44